Timeline UpdatesTrip UpdatesNews PostsPvt PostsTravel TipsAdmin PostsConv PostsFollowed PostsChat RequestsBlog PostsPNR Posts

Disclaimer
Search
 
 
Thu Oct 2, 2014 09:54:42 ISTHomeTrainsΣChainsAtlasPNRForumGalleryNewsFAQTripsMembersLoginFeedback
No Recent News for this Train
Other Trains in the News **new
Latest...
.
Tue Dec 31, 2013 (01:14PM)
⇐ Return Journey: Train# 11015

11016/Kushinagar Express

Time-Table HAS CHANGED.
Sep 13 (1:44PM)
Change Departure Station:
Change Arrival Station:
Post a Train Travel TipPost a Train Travel Tip **new
Post a Comment/Question/Picture/VideoPost a Comment/Question/Picture/Video
Pantry/Catering
✓ Pantry Car Avbl
✓ Catering Avbl
RSA - Rake Sharing
No RSA.
Rake/Coach Composition
Loco-SLR-GEN-S1-S2-S3-S4-S5-S6-S7-S8-S9-S10-S11-S12-PC-S13-S14-A1-B1-B2-GEN-GEN-SLR
Loco
(GKP-JHS) GD-WDM-3A (JHS-LTT) BSL-WAP-4 Entry# 970760
News    PNR    Forum    Time-Table    Availability    Fare Chart    Map    Arr/Dep History    Trips    Gallery    ΣChains    X/O    Timeline    
Travel Time: 11h 15m    14 halts    Distance: 584 km    Avg Speed: 51 km/hr
Type: Mail/Express
Zone: CR/Central
Departs @ 00:40 (Avg 17m late)
Platform# 4
SMTWTFS
Lucknow Charbagh NR/LKO 
Arrives @ 11:55 (Avg 1h 25m late)
Platform# 1
SMTWTFS
Bhopal Junction/BPL 

14 halts. 82 intermediate Stations between Lucknow Charbagh NR and Bhopal Junction

Show ALL intermediate Stations  Show Old Time-Table

#CodeStation NameX/OArrivesAvgDepartsAvgHaltPFDay#KmSpeedElevZoneAddress
1GKPGorakhpur Junction (10)  -19:00+221-269.75484mNERGorakhpur 273001, Uttar Pradesh
2KLDKhalilabad (3)X  19:36 19:38+1319:38 19:40+162m11-235.85986mNERKhalilabad- 272175, Uttar Pradesh
3BSTBasti (4)X  20:10+1220:15+155m11-206.38090mNERBasti 272001, Uttar Pradesh
4BVBabhnan (2)  20:38+1920:40+212m11-175.564101mNERDistrict- Basti, Uttar Pradesh
5MURMankapur Junction (5)X  21:12 21:08+1721:14 21:10+182m21-145.756104mNERDistrict Gonda, Uttar Pradesh
6GDGonda Junction (3)  21:40+1721:45+175m11-117.952110mNERGonda 271001, Uttar Pradesh
7BBKBarabanki Junction (4)X  23:28+1123:30+132m21-28.529122mNRPin-225001, Uttar Pradesh
8LKOLucknow Charbagh NR (9)»X  00:25 00:30+1600:40+1715 10m420.062123mNR226004, Uttar Pradesh
9ONUnnao Junction (5)X  01:34 01:33+1701:36 01:35+172m--254.626129mNRUnnao, Uttar Pradesh
10CNBKanpur Central (10)  02:15+1602:25+2110m4272.033128mNCRKANPUR-208 001, Uttar Pradesh
11BZMBhimsen (1)  02:51+3202:53+352m1286.170136mNCRKanpur, Uttar Pradesh
12PHNPokhrayan (2)  03:30 03:31+3903:32 03:33+402m12130.560133mNCRPukhrayan, Uttar Pradesh
13KPIKalpi  03:47 03:48+4403:49 03:50+482m12145.566114mNCRKalpi Orai(05162-252206), Uttar Pradesh
14ORAIOrai (3)  04:14 04:20+5604:21 04:22+577 2m22178.374139mNCROrai(05162-252206), Uttar Pradesh
15AITAit Junction (2)X  04:39 04:42+1:0704:41 04:44+1:092m12202.964154mNCROrai(05162-252206), Uttar Pradesh
16CGNChirgaonX  05:38+1:2105:40+1:242m12260.522192mNCRChirgaon, Uttar Pradesh
17JHSJhansi Junction (7)07:05+4207:15 07:17+5510 12m12292.367259mNCRJhansi, Uttar Pradesh
18BABBabina (3)X  07:43 07:40+1:0207:45 07:42+1:022m12317.886285mNCRBabina, Uttar Pradesh
19LARLalitpur (3)  08:30 08:27+1:0708:32 08:29+1:072m12382.650373mNCRLalitpur, Uttar Pradesh
20BINABina Junction (5)X  09:45+5909:50+1:035m42445.586414mWCRJn Pt - KATNI/GUNA/ BPL/JHS, Madhya Pradesh
21BAQGanj Basoda (4)  10:22+1:1510:24+1:242m22491.284 WCRVidisha, Madhya Pradesh
22BHSVidisha (3)X  10:52+1:3810:54+1:392m22530.553 WCRVidisha, Madhya Pradesh
23BPLBhopal Junction (6)•X  12:00 11:55+1:2512:05 12:00+1:305m12584.138497mWCRBhopal, Madhya Pradesh
24HBJBhopal HabibGanj (5)  12:15 12:10+1:3312:17 12:12+1:342m42590.364496mWCRHabibGanj, Madhya Pradesh
25MDDPMandi Dip (1)  12:32 12:27+1:4312:34 12:29+1:432m12606.464 WCRMandideep, Madhya Pradesh
26HBDHoshangabad (2)XO  13:22 13:17+1:5713:24 13:19+1:572m--2657.735308mWCRHoshangabad, Madhya Pradesh
27ETItarsi Junction (7)  13:50+1:4413:55+1:495m22675.864329mWCRItarsi 461111, Madhya Pradesh
28TBNTimarni (2)  14:53+1:5314:55+1:532m12737.565308mWCRTimarni, Madhya Pradesh
29HDHarda (3)X  15:09 15:08+1:5215:10+1:521 2m32751.686289mWCRHarda, Madhya Pradesh
30KKNKhirkiya (2)  15:32+1:5915:34+1:592m12783.145281mWCRSH 15, Madhya Pradesh
31KNWKhandwa Junction (5)X  17:15+1:0917:20+1:095m12859.278310mCRKhandwa, Madhya Pradesh
32NPNRNepanagar (2)  17:53+1:1217:55+1:132m--2901.868289mCRState Highway 27, Madhya Pradesh
33BAUBurhanpur (2)X  18:18+1:1518:20+1:152m12928.176269mCRBurhanpur, Madhya Pradesh
34RVRaver (2)X  18:36+1:1718:38+1:172m--2948.364242mCRJalgaon, Maharashtra
35BSLBhusaval Junction (8)X  19:10+1:1819:20+1:2110m32982.663208mCRBhusaval 425201, Maharashtra
36JLJalgaon Junction (4)X  19:43+1:2719:45+1:272m221006.792213mCRJalgaon 425001, Maharashtra
37PCPachora Junction (4)X  20:16+1:4320:18+1:452m--21054.454264mCRPachora 424201, Maharashtra
38CSNChalisgaon Junction (3)XO  21:08+1:3221:10+1:352m--21099.259352mCRChalisgaon 424101, Maharashtra
39NGNNandgaon (3)  21:53+1:2821:55+1:302m--21141.476476mCRNandgaon, Maharashtra
40MMRManmad Junction (6)X  22:15+1:3222:20+1:365m321166.875580mCRManmad 423104, Maharashtra
41NKNasik Road (3)X  23:15 23:18+1:3723:20+1:375 2m321239.543563mCRNashik 422101, Maharashtra
42DVLDevlali (3)X  23:28+1:4323:30+1:442m221245.325561mCRDist. Nashik 422401, Maharashtra
43IGPIgatpuri (4)X  01:15 01:18+5001:20+555 2m--31290.245589mCRIgatpuri 422403, Maharashtra
44KYNKalyan Junction (8)O  03:10+1:0003:15+595m531372.06710mCRKalyan 421301, Maharashtra
45TNAThane (10)O  03:33+5403:35+552m831392.22210mCRThane (West) 400602, Maharashtra
46LTTMumbai Lokmanya Tilak Terminus (5)  04:20+49-531408.7-7mCRMumbai - 400089, Maharashtra
Scroll to Top
Scroll to Bottom